createdAt,value
2022-12-05T00:00:31.565Z,2.89
2022-12-05T00:01:31.545Z,2.87
2022-12-05T00:02:31.779Z,2.87
2022-12-05T00:03:31.525Z,2.89
2022-12-05T00:04:31.607Z,2.89
2022-12-05T00:05:31.506Z,2.89
2022-12-05T00:06:31.503Z,2.89
2022-12-05T00:07:31.515Z,2.87
2022-12-05T00:08:31.540Z,2.86
2022-12-05T00:09:31.493Z,2.87
2022-12-05T00:10:31.481Z,2.87
2022-12-05T00:11:31.450Z,2.86
2022-12-05T00:12:31.435Z,2.86
2022-12-05T00:13:31.457Z,2.87
2022-12-05T00:14:31.420Z,2.90
2022-12-05T00:15:31.409Z,2.89
2022-12-05T00:16:31.460Z,2.89
2022-12-05T00:17:31.444Z,2.87
2022-12-05T00:18:31.375Z,2.89
2022-12-05T00:19:31.357Z,2.89
2022-12-05T00:20:31.361Z,2.89
2022-12-05T00:21:31.333Z,2.87
2022-12-05T00:22:31.352Z,2.87
2022-12-05T00:23:31.360Z,2.86
2022-12-05T00:24:31.311Z,2.86
2022-12-05T00:25:31.340Z,2.86
2022-12-05T00:26:31.320Z,2.86
2022-12-05T00:27:31.261Z,2.87
2022-12-05T00:28:31.284Z,2.86
2022-12-05T00:29:31.250Z,2.86
2022-12-05T00:30:31.278Z,2.87
2022-12-05T00:31:31.282Z,2.86
2022-12-05T00:32:31.231Z,2.87
2022-12-05T00:33:31.222Z,2.87
2022-12-05T00:34:31.201Z,2.89
2022-12-05T00:35:31.229Z,2.91
2022-12-05T00:36:31.181Z,2.91
2022-12-05T00:37:31.160Z,2.91
2022-12-05T00:38:31.209Z,2.91
2022-12-05T00:39:31.150Z,2.90
2022-12-05T00:40:31.140Z,2.89
2022-12-05T00:41:31.133Z,2.87
2022-12-05T00:42:31.138Z,2.87
2022-12-05T00:43:31.131Z,2.89
2022-12-05T00:44:31.119Z,2.87
2022-12-05T00:45:31.197Z,2.87
2022-12-05T00:46:31.119Z,2.89
2022-12-05T00:47:31.061Z,2.89
2022-12-05T00:48:31.070Z,2.86
2022-12-05T00:49:31.041Z,2.86
2022-12-05T00:50:31.029Z,2.87
2022-12-05T00:51:31.054Z,2.87
2022-12-05T00:52:31.036Z,2.87
2022-12-05T00:53:31.000Z,2.84
2022-12-05T00:54:30.986Z,2.84
2022-12-05T00:55:30.976Z,2.86
2022-12-05T00:56:31.037Z,2.87
2022-12-05T00:57:30.998Z,2.86
2022-12-05T00:58:30.977Z,2.87
2022-12-05T00:59:30.935Z,2.86
2022-12-05T01:00:30.926Z,2.87
2022-12-05T01:01:30.978Z,2.89
2022-12-05T01:02:30.909Z,2.90
2022-12-05T01:03:30.986Z,2.90
2022-12-05T01:04:30.881Z,2.87
2022-12-05T01:05:30.873Z,2.87
2022-12-05T01:06:30.897Z,2.89
2022-12-05T01:07:30.915Z,2.86
2022-12-05T01:08:30.847Z,2.86
2022-12-05T01:09:30.835Z,2.84
2022-12-05T01:10:30.806Z,2.82
2022-12-05T01:11:31.690Z,2.82
2022-12-05T01:12:30.845Z,2.82
2022-12-05T01:13:30.775Z,2.84
2022-12-05T01:14:30.774Z,2.81
2022-12-05T01:15:30.768Z,2.81
2022-12-05T01:16:30.851Z,2.81
2022-12-05T01:17:30.745Z,2.81
2022-12-05T01:18:30.732Z,2.82
2022-12-05T01:19:30.725Z,2.86
2022-12-05T01:20:30.705Z,2.84
2022-12-05T01:21:30.702Z,2.84
2022-12-05T01:22:30.735Z,2.82
2022-12-05T01:23:30.712Z,2.82
2022-12-05T01:24:30.663Z,2.79
2022-12-05T01:25:30.662Z,2.82
2022-12-05T01:26:30.641Z,2.86
2022-12-05T01:27:30.633Z,2.86
2022-12-05T01:28:30.694Z,2.87
2022-12-05T01:29:30.613Z,2.84
2022-12-05T01:30:31.579Z,2.86
2022-12-05T01:31:30.668Z,2.81
2022-12-05T01:32:30.582Z,2.82
2022-12-05T01:33:30.571Z,2.81
2022-12-05T01:34:30.585Z,2.82
2022-12-05T01:35:30.551Z,2.82
2022-12-05T01:36:30.562Z,2.82
2022-12-05T01:37:30.523Z,2.84
2022-12-05T01:38:30.540Z,2.82
2022-12-05T01:39:30.507Z,2.82
2022-12-05T01:40:30.492Z,2.82
2022-12-05T01:41:30.482Z,2.82
2022-12-05T01:42:30.470Z,2.82
2022-12-05T01:43:30.460Z,2.82
2022-12-05T01:44:30.470Z,2.82
2022-12-05T01:45:30.449Z,2.81
2022-12-05T01:46:30.474Z,2.79
2022-12-05T01:47:30.432Z,2.81
2022-12-05T01:48:30.401Z,2.81
2022-12-05T01:49:30.400Z,2.79
2022-12-05T01:50:30.440Z,2.79
2022-12-05T01:51:30.379Z,2.79
2022-12-05T01:52:30.400Z,2.79
2022-12-05T01:53:30.361Z,2.76
2022-12-05T01:54:30.340Z,2.76
2022-12-05T01:55:30.332Z,2.78
2022-12-05T01:56:30.320Z,2.79
2022-12-05T01:57:30.309Z,2.78
2022-12-05T01:58:30.341Z,2.76
2022-12-05T01:59:30.289Z,2.78
2022-12-05T02:00:30.278Z,2.78
2022-12-05T02:01:30.377Z,2.78
2022-12-05T02:02:30.332Z,2.78
2022-12-05T02:03:30.250Z,2.78
2022-12-05T02:04:30.258Z,2.79
2022-12-05T02:05:30.228Z,2.78
2022-12-05T02:06:30.213Z,2.78
2022-12-05T02:07:30.198Z,2.78
2022-12-05T02:08:30.247Z,2.75
2022-12-05T02:09:30.187Z,2.76
2022-12-05T02:10:30.183Z,2.76
2022-12-05T02:11:30.167Z,2.76
2022-12-05T02:12:30.179Z,2.75
2022-12-05T02:13:30.137Z,2.78
2022-12-05T02:14:30.127Z,2.76
2022-12-05T02:15:30.115Z,2.78
2022-12-05T02:16:30.192Z,2.76
2022-12-05T02:17:30.097Z,2.79
2022-12-05T02:18:30.124Z,2.79
2022-12-05T02:19:30.108Z,2.79
2022-12-05T02:20:30.095Z,2.82
2022-12-05T02:21:30.076Z,2.82
2022-12-05T02:22:30.053Z,2.82
2022-12-05T02:23:30.028Z,2.82
2022-12-05T02:24:30.046Z,2.82
2022-12-05T02:25:30.007Z,2.81
2022-12-05T02:26:30.008Z,2.82
2022-12-05T02:27:30.017Z,2.82
2022-12-05T02:28:30.005Z,2.81
2022-12-05T02:29:29.977Z,2.81
2022-12-05T02:30:30.006Z,2.79
2022-12-05T02:31:30.029Z,2.79
2022-12-05T02:32:29.944Z,2.81
2022-12-05T02:33:29.947Z,2.81
2022-12-05T02:34:29.915Z,2.81
2022-12-05T02:35:29.933Z,2.81
2022-12-05T02:36:29.904Z,2.82
2022-12-05T02:37:29.896Z,2.81
2022-12-05T02:38:29.875Z,2.84
2022-12-05T02:39:29.865Z,2.82
2022-12-05T02:40:29.904Z,2.84
2022-12-05T02:41:29.844Z,2.82
2022-12-05T02:42:29.828Z,2.82
2022-12-05T02:43:29.814Z,2.82
2022-12-05T02:44:29.806Z,2.82
2022-12-05T02:45:29.899Z,2.78
2022-12-05T02:46:29.960Z,2.79
2022-12-05T02:47:29.793Z,2.79
2022-12-05T02:48:29.757Z,2.79
2022-12-05T02:49:29.786Z,2.79
2022-12-05T02:50:29.812Z,2.79
2022-12-05T02:51:29.732Z,2.79
2022-12-05T02:52:29.726Z,2.79
2022-12-05T02:53:29.714Z,2.81
2022-12-05T02:54:29.712Z,2.81
2022-12-05T02:55:29.691Z,2.81
2022-12-05T02:56:29.701Z,2.79
2022-12-05T02:57:29.672Z,2.81
2022-12-05T02:58:29.665Z,2.82
2022-12-05T02:59:29.670Z,2.81
2022-12-05T03:00:29.690Z,2.81
2022-12-05T03:01:29.732Z,2.81
2022-12-05T03:02:29.642Z,2.79
2022-12-05T03:03:29.602Z,2.79
2022-12-05T03:04:29.756Z,2.78
2022-12-05T03:05:29.613Z,2.78
2022-12-05T03:06:29.570Z,2.75
2022-12-05T03:07:29.633Z,2.78
2022-12-05T03:08:29.550Z,2.76
2022-12-05T03:09:29.541Z,2.78
2022-12-05T03:10:29.539Z,2.78
2022-12-05T03:11:29.539Z,2.79
2022-12-05T03:12:29.508Z,2.79
2022-12-05T03:13:29.528Z,2.79
2022-12-05T03:14:29.478Z,2.81
2022-12-05T03:15:29.480Z,2.81
2022-12-05T03:16:29.547Z,2.82
2022-12-05T03:17:29.461Z,2.81
2022-12-05T03:18:29.477Z,2.79
2022-12-05T03:19:29.432Z,2.79
2022-12-05T03:20:29.413Z,2.78
2022-12-05T03:21:29.447Z,2.81
2022-12-05T03:22:29.399Z,2.82
2022-12-05T03:23:29.400Z,2.79
2022-12-05T03:24:29.377Z,2.81
2022-12-05T03:25:29.376Z,2.79
2022-12-05T03:26:29.356Z,2.79
2022-12-05T03:27:29.385Z,2.81
2022-12-05T03:28:29.346Z,2.81
2022-12-05T03:29:29.374Z,2.81
2022-12-05T03:30:29.379Z,2.82
2022-12-05T03:31:29.305Z,2.79
2022-12-05T03:32:29.342Z,2.78
2022-12-05T03:33:29.346Z,2.78
2022-12-05T03:34:29.296Z,2.78
2022-12-05T03:35:29.265Z,2.78
2022-12-05T03:36:29.246Z,2.76
2022-12-05T03:37:29.274Z,2.76
2022-12-05T03:38:29.258Z,2.76
2022-12-05T03:39:29.216Z,2.78
2022-12-05T03:40:29.243Z,2.76
2022-12-05T03:41:29.203Z,2.79
2022-12-05T03:42:29.216Z,2.78
2022-12-05T03:43:29.184Z,2.79
2022-12-05T03:44:29.165Z,2.81
2022-12-05T03:45:29.155Z,2.82
2022-12-05T03:46:29.328Z,2.87
2022-12-05T03:47:29.137Z,2.86
2022-12-05T03:48:29.122Z,2.89
2022-12-05T03:49:33.611Z,2.89
2022-12-05T03:50:30.103Z,2.87
2022-12-05T03:51:29.093Z,2.89
2022-12-05T03:52:29.114Z,2.89
2022-12-05T03:53:29.091Z,2.89
2022-12-05T03:54:29.060Z,2.89
2022-12-05T03:55:29.054Z,2.87
2022-12-05T03:56:29.035Z,2.86
2022-12-05T03:57:29.043Z,2.87
2022-12-05T03:58:29.336Z,2.87
2022-12-05T04:00:39.011Z,2.90
2022-12-05T04:01:39.076Z,2.89
2022-12-05T04:02:39.010Z,2.89
2022-12-05T04:03:39.155Z,2.90
2022-12-05T04:04:38.959Z,2.89
2022-12-05T04:05:38.939Z,2.87
2022-12-05T04:06:38.930Z,2.87
2022-12-05T04:07:38.980Z,2.87
2022-12-05T04:08:38.948Z,2.87
2022-12-05T04:09:38.900Z,2.89
2022-12-05T04:10:38.891Z,2.87
2022-12-05T04:11:38.880Z,2.87
2022-12-05T04:12:38.869Z,2.86
2022-12-05T04:13:38.885Z,2.86
2022-12-05T04:14:38.847Z,2.87
2022-12-05T04:15:38.855Z,2.86
2022-12-05T04:16:38.860Z,2.84
2022-12-05T04:17:38.819Z,2.84
2022-12-05T04:18:38.809Z,2.84
2022-12-05T04:19:38.789Z,2.86
2022-12-05T04:20:38.780Z,2.86
2022-12-05T04:21:38.798Z,2.86
2022-12-05T04:22:38.771Z,2.87
2022-12-05T04:23:41.382Z,2.89
2022-12-05T04:24:38.749Z,2.89
2022-12-05T04:25:38.728Z,2.90
2022-12-05T04:26:38.717Z,2.94
2022-12-05T04:27:38.897Z,2.94
2022-12-05T04:28:38.699Z,2.93
2022-12-05T04:29:38.687Z,2.93
2022-12-05T04:30:38.753Z,2.93
2022-12-05T04:31:38.747Z,2.93
2022-12-05T04:32:38.646Z,2.91
2022-12-05T04:33:38.666Z,2.90
2022-12-05T04:34:38.654Z,2.90
2022-12-05T04:35:38.618Z,2.89
2022-12-05T04:36:38.616Z,2.90
2022-12-05T04:37:38.595Z,2.89
2022-12-05T04:38:38.586Z,2.89
2022-12-05T04:39:38.615Z,2.86
2022-12-05T04:40:38.565Z,2.89
2022-12-05T04:41:38.555Z,2.87
2022-12-05T04:42:38.546Z,2.89
2022-12-05T04:43:38.537Z,2.89
2022-12-05T04:44:38.527Z,2.90
2022-12-05T04:45:38.542Z,2.93
2022-12-05T04:46:38.571Z,2.94
2022-12-05T04:47:38.544Z,2.96
2022-12-05T04:48:38.484Z,2.96
2022-12-05T04:49:38.494Z,2.97
2022-12-05T04:50:38.536Z,2.96
2022-12-05T04:51:38.714Z,2.97
2022-12-05T04:52:38.444Z,2.99
2022-12-05T04:53:38.432Z,2.97
2022-12-05T04:54:38.424Z,2.97
2022-12-05T04:55:38.415Z,2.99
2022-12-05T04:56:38.453Z,2.99
2022-12-05T04:57:38.383Z,2.99
2022-12-05T04:58:38.383Z,2.97
2022-12-05T04:59:38.363Z,2.97
2022-12-05T05:00:38.350Z,2.96
2022-12-05T05:01:38.366Z,2.94
2022-12-05T05:02:38.417Z,2.94
2022-12-05T05:03:38.312Z,2.93
2022-12-05T05:04:38.343Z,2.93
2022-12-05T05:05:38.292Z,2.94
2022-12-05T05:06:38.291Z,2.94
2022-12-05T05:07:38.348Z,2.96
2022-12-05T05:08:38.313Z,2.94
2022-12-05T05:09:38.252Z,2.96
2022-12-05T05:10:38.242Z,2.96
2022-12-05T05:11:38.283Z,2.96
2022-12-05T05:12:38.307Z,2.96
2022-12-05T05:13:38.213Z,2.96
2022-12-05T05:14:38.202Z,2.94
2022-12-05T05:15:38.212Z,2.94
2022-12-05T05:16:38.258Z,2.91
2022-12-05T05:17:38.190Z,2.91
2022-12-05T05:18:38.160Z,2.91
2022-12-05T05:19:38.138Z,2.94
2022-12-05T05:20:38.269Z,2.94
2022-12-05T05:21:38.128Z,2.97
2022-12-05T05:22:38.158Z,2.97
2022-12-05T05:23:38.099Z,3.02
2022-12-05T05:24:38.127Z,3.12
2022-12-05T05:25:38.078Z,3.14
2022-12-05T05:26:38.100Z,3.14
2022-12-05T05:27:38.057Z,3.11
2022-12-05T05:28:38.048Z,3.11
2022-12-05T05:29:38.050Z,3.09
2022-12-05T05:30:38.031Z,3.07
2022-12-05T05:31:38.123Z,3.02
2022-12-05T05:32:38.017Z,3.02
2022-12-05T05:33:37.998Z,2.97
2022-12-05T05:34:37.998Z,2.97
2022-12-05T05:35:37.978Z,2.96
2022-12-05T05:36:38.004Z,2.96
2022-12-05T05:37:37.957Z,2.94
2022-12-05T05:38:37.949Z,2.94
2022-12-05T05:39:37.942Z,2.91
2022-12-05T05:40:37.931Z,2.91
2022-12-05T05:41:37.948Z,2.90
2022-12-05T05:42:37.907Z,2.87
2022-12-05T05:43:37.897Z,2.81
2022-12-05T05:44:37.887Z,2.79
2022-12-05T05:45:37.874Z,2.78
2022-12-05T05:46:37.954Z,2.76
2022-12-05T05:47:37.847Z,2.75
2022-12-05T05:48:37.849Z,2.72
2022-12-05T05:49:37.836Z,2.71
2022-12-05T05:50:37.826Z,2.69
2022-12-05T05:51:37.817Z,2.69
2022-12-05T05:52:37.826Z,2.69
2022-12-05T05:53:37.826Z,2.68
2022-12-05T05:54:37.794Z,2.71
2022-12-05T05:55:37.767Z,2.68
2022-12-05T05:56:37.796Z,2.68
2022-12-05T05:57:37.815Z,2.68
2022-12-05T05:58:37.748Z,2.68
2022-12-05T05:59:37.765Z,2.68
2022-12-05T06:00:37.762Z,2.65
2022-12-05T06:01:37.705Z,2.65
2022-12-05T06:02:37.886Z,2.65
2022-12-05T06:03:37.816Z,2.65
2022-12-05T06:04:37.694Z,2.63
2022-12-05T06:05:37.713Z,2.61
2022-12-05T06:06:37.655Z,2.61
2022-12-05T06:07:37.695Z,2.58
2022-12-05T06:08:37.651Z,2.60
2022-12-05T06:09:37.634Z,2.57
2022-12-05T06:10:37.634Z,2.55
2022-12-05T06:11:37.857Z,2.58
2022-12-05T06:12:37.603Z,2.57
2022-12-05T06:13:37.583Z,2.57
2022-12-05T06:14:37.571Z,2.57
2022-12-05T06:15:37.610Z,2.55
2022-12-05T06:16:37.593Z,2.54
2022-12-05T06:17:37.533Z,2.53
2022-12-05T06:18:37.523Z,2.53
2022-12-05T06:19:37.532Z,2.54
2022-12-05T06:20:37.513Z,2.53
2022-12-05T06:21:37.522Z,2.53
2022-12-05T06:22:37.683Z,2.53
2022-12-05T06:23:37.475Z,2.51
2022-12-05T06:24:37.513Z,2.51
2022-12-05T06:25:37.512Z,2.51
2022-12-05T06:26:37.771Z,2.50
2022-12-05T06:27:37.462Z,2.51
2022-12-05T06:28:37.424Z,2.50
2022-12-05T06:29:37.439Z,2.50
2022-12-05T06:30:37.414Z,2.50
2022-12-05T06:31:37.452Z,2.51
2022-12-05T06:32:37.458Z,2.53
2022-12-05T06:33:37.381Z,2.54
2022-12-05T06:34:37.373Z,2.54
2022-12-05T06:35:37.353Z,2.57
2022-12-05T06:36:37.372Z,2.57
2022-12-05T06:37:37.330Z,2.58
2022-12-05T06:38:41.741Z,2.55
2022-12-05T06:39:37.342Z,2.57
2022-12-05T06:40:37.295Z,2.55
2022-12-05T06:41:37.291Z,2.53
2022-12-05T06:42:37.270Z,2.51
2022-12-05T06:43:37.281Z,2.48
2022-12-05T06:44:37.289Z,2.45
2022-12-05T06:45:37.331Z,2.43
2022-12-05T06:46:37.229Z,2.42
2022-12-05T06:47:37.219Z,2.42
2022-12-05T06:48:37.209Z,2.42
2022-12-05T06:49:38.236Z,2.45
2022-12-05T06:50:37.188Z,2.47
2022-12-05T06:51:37.250Z,2.45
2022-12-05T06:52:37.162Z,2.45
2022-12-05T06:53:37.182Z,2.48
2022-12-05T06:54:37.148Z,2.43
2022-12-05T06:55:37.168Z,2.42
2022-12-05T06:56:37.129Z,2.40
2022-12-05T06:57:37.115Z,2.40
2022-12-05T06:58:37.109Z,2.40
2022-12-05T06:59:37.099Z,2.39
2022-12-05T07:00:37.232Z,2.37
2022-12-05T07:01:37.117Z,2.40
2022-12-05T07:02:37.120Z,2.39
2022-12-05T07:03:37.059Z,2.40
2022-12-05T07:04:37.068Z,2.40
2022-12-05T07:05:37.057Z,2.42
2022-12-05T07:06:37.006Z,2.40
2022-12-05T07:07:37.043Z,2.37
2022-12-05T07:08:36.994Z,2.35
2022-12-05T07:09:37.015Z,2.33
2022-12-05T07:10:37.084Z,2.32
2022-12-05T07:11:36.964Z,2.29
2022-12-05T07:12:38.666Z,2.25
2022-12-05T07:13:36.944Z,2.22
2022-12-05T07:14:47.717Z,2.22
2022-12-05T07:15:37.935Z,2.19
2022-12-05T07:16:36.995Z,2.18
2022-12-05T07:17:36.926Z,2.17
2022-12-05T07:18:36.875Z,2.17
2022-12-05T07:19:36.878Z,2.15
2022-12-05T07:21:03.984Z,2.14
2022-12-05T07:21:37.855Z,2.07
2022-12-05T07:22:36.843Z,2.06
2022-12-05T07:23:36.934Z,2.06
2022-12-05T07:24:36.815Z,2.06
2022-12-05T07:25:36.823Z,2.06
2022-12-05T07:26:36.813Z,2.06
2022-12-05T07:27:36.784Z,2.07
2022-12-05T07:28:36.816Z,2.07
2022-12-05T07:29:37.435Z,2.10
2022-12-05T07:30:36.761Z,2.10
2022-12-05T07:31:36.833Z,2.07
2022-12-05T07:32:36.864Z,2.07
2022-12-05T07:33:36.723Z,2.07
2022-12-05T07:34:36.714Z,2.06
2022-12-05T07:35:36.776Z,2.06
2022-12-05T07:36:36.726Z,2.04
2022-12-05T07:37:36.695Z,2.06
2022-12-05T07:38:36.843Z,2.04
2022-12-05T07:39:36.662Z,2.01
2022-12-05T07:40:36.652Z,2.03
2022-12-05T07:41:36.676Z,2.01
2022-12-05T07:42:36.622Z,2.00
2022-12-05T07:43:36.632Z,2.01
2022-12-05T07:44:36.660Z,1.99
2022-12-05T07:45:36.650Z,1.99
2022-12-05T07:46:36.591Z,1.97
2022-12-05T07:47:36.624Z,1.99
2022-12-05T07:48:36.561Z,1.95
2022-12-05T07:49:36.578Z,1.95
2022-12-05T07:50:36.542Z,1.93
2022-12-05T07:51:36.562Z,1.92
2022-12-05T07:52:36.520Z,1.92
2022-12-05T07:53:36.514Z,1.92
2022-12-05T07:54:36.511Z,1.93
2022-12-05T07:55:36.490Z,1.95
2022-12-05T07:56:36.501Z,1.95
2022-12-05T07:57:36.471Z,1.97
2022-12-05T07:58:36.450Z,1.97
2022-12-05T07:59:36.440Z,1.99
2022-12-05T08:00:36.420Z,1.97
2022-12-05T08:01:37.205Z,1.97
2022-12-05T08:02:40.410Z,1.99
2022-12-05T08:03:36.396Z,1.97
2022-12-05T08:04:36.389Z,1.97
2022-12-05T08:05:36.381Z,1.95
2022-12-05T08:06:36.399Z,1.95
2022-12-05T08:07:36.453Z,1.95
2022-12-05T08:08:36.336Z,1.93
2022-12-05T08:09:36.327Z,1.92
2022-12-05T08:10:36.316Z,1.91
2022-12-05T08:11:36.318Z,1.92
2022-12-05T08:12:36.357Z,1.92
2022-12-05T08:13:36.324Z,1.91
2022-12-05T08:14:36.325Z,1.91
2022-12-05T08:15:36.265Z,1.91
2022-12-05T08:16:36.348Z,1.91
2022-12-05T08:17:36.256Z,1.92
2022-12-05T08:18:36.225Z,1.92
2022-12-05T08:19:36.225Z,1.93
2022-12-05T08:20:36.206Z,1.95
2022-12-05T08:21:36.228Z,1.95
2022-12-05T08:22:36.185Z,1.95
2022-12-05T08:23:36.184Z,1.97
2022-12-05T08:24:36.165Z,2.01
2022-12-05T08:25:37.827Z,2.03
2022-12-05T08:26:36.144Z,2.04
2022-12-05T08:27:36.144Z,2.03
2022-12-05T08:28:36.124Z,2.04
2022-12-05T08:29:36.151Z,2.04
2022-12-05T08:30:36.152Z,2.04
2022-12-05T08:31:36.095Z,2.06
2022-12-05T08:32:36.086Z,2.04
2022-12-05T08:33:36.090Z,2.03
2022-12-05T08:34:36.226Z,2.03
2022-12-05T08:35:36.064Z,2.04
2022-12-05T08:36:36.045Z,2.06
2022-12-05T08:37:36.046Z,2.10
2022-12-05T08:38:36.041Z,2.11
2022-12-05T08:39:38.751Z,2.10
2022-12-05T08:40:36.145Z,2.11
2022-12-05T08:41:39.713Z,2.11
2022-12-05T08:42:35.991Z,2.11
2022-12-05T08:43:35.973Z,2.10
2022-12-05T08:44:35.972Z,2.07
2022-12-05T08:45:35.967Z,2.11
2022-12-05T08:46:36.071Z,2.10
2022-12-05T08:47:39.882Z,2.12
2022-12-05T08:48:35.913Z,2.12
2022-12-05T08:49:35.912Z,2.12
2022-12-05T08:50:35.894Z,2.15
2022-12-05T08:51:35.892Z,2.12
2022-12-05T08:52:35.882Z,2.14
2022-12-05T08:53:40.962Z,2.12
2022-12-05T08:54:36.852Z,2.12
2022-12-05T08:55:35.854Z,2.14
2022-12-05T08:56:35.831Z,2.14
2022-12-05T08:57:35.829Z,2.17
2022-12-05T08:58:35.810Z,2.17
2022-12-05T08:59:35.840Z,2.18
2022-12-05T09:00:35.790Z,2.19
2022-12-05T09:01:35.857Z,2.21
2022-12-05T09:02:35.835Z,2.24
2022-12-05T09:03:35.760Z,2.24
2022-12-05T09:04:35.780Z,2.28
2022-12-05T09:05:35.827Z,2.29
2022-12-05T09:06:35.777Z,2.30
2022-12-05T09:07:35.804Z,2.33
2022-12-05T09:08:35.709Z,2.35
2022-12-05T09:09:35.700Z,2.35
2022-12-05T09:10:37.444Z,2.36
2022-12-05T09:11:35.679Z,2.37
2022-12-05T09:12:35.660Z,2.39
2022-12-05T09:13:35.658Z,2.40
2022-12-05T09:14:40.279Z,2.40
2022-12-05T09:15:35.696Z,2.40
2022-12-05T09:16:38.518Z,2.42
2022-12-05T09:17:35.618Z,2.39
2022-12-05T09:18:35.597Z,2.39
2022-12-05T09:19:35.636Z,2.39
2022-12-05T09:20:35.578Z,2.39
2022-12-05T09:21:35.597Z,2.39
2022-12-05T09:22:35.564Z,2.40
2022-12-05T09:23:35.557Z,2.40
2022-12-05T09:24:35.537Z,2.42
2022-12-05T09:25:35.645Z,2.42
2022-12-05T09:26:35.519Z,2.42
2022-12-05T09:27:35.516Z,2.42
2022-12-05T09:28:35.497Z,2.43
2022-12-05T09:29:35.506Z,2.43
2022-12-05T09:30:35.477Z,2.43
2022-12-05T09:31:35.571Z,2.45
2022-12-05T09:32:35.486Z,2.43
2022-12-05T09:33:35.469Z,2.45
2022-12-05T09:34:35.435Z,2.45
2022-12-05T09:35:35.433Z,2.43
2022-12-05T09:36:35.417Z,2.45
2022-12-05T09:37:39.641Z,2.43
2022-12-05T09:38:35.436Z,2.43
2022-12-05T09:39:35.406Z,2.45
2022-12-05T09:40:35.375Z,2.45
2022-12-05T09:41:35.378Z,2.43
2022-12-05T09:42:35.356Z,2.43
2022-12-05T09:43:35.485Z,2.43
2022-12-05T09:44:35.355Z,2.42
2022-12-05T09:45:35.326Z,2.45
2022-12-05T09:46:35.914Z,2.43
2022-12-05T09:47:35.327Z,2.42
2022-12-05T09:48:35.285Z,2.42
2022-12-05T09:49:39.095Z,2.42
2022-12-05T09:50:35.303Z,2.40
2022-12-05T09:51:35.264Z,2.37
2022-12-05T09:52:35.246Z,2.39
2022-12-05T09:53:35.257Z,2.37
2022-12-05T09:54:35.275Z,2.37
2022-12-05T09:55:35.224Z,2.37
2022-12-05T09:56:35.213Z,2.37
2022-12-05T09:57:35.209Z,2.39
2022-12-05T09:58:35.194Z,2.39
2022-12-05T09:59:35.201Z,2.42
2022-12-05T10:00:42.584Z,2.43
2022-12-05T10:01:35.266Z,2.45
2022-12-05T10:02:35.173Z,2.43
2022-12-05T10:03:35.140Z,2.42
2022-12-05T10:04:35.251Z,2.40
2022-12-05T10:05:35.141Z,2.40
2022-12-05T10:06:35.102Z,2.42
2022-12-05T10:07:35.177Z,2.40
2022-12-05T10:08:35.083Z,2.35
2022-12-05T10:09:35.154Z,2.33
2022-12-05T10:10:35.091Z,2.32
2022-12-05T10:11:35.071Z,2.30
2022-12-05T10:12:35.042Z,2.28
2022-12-05T10:13:43.160Z,2.24
2022-12-05T10:14:35.031Z,2.19
2022-12-05T10:15:35.159Z,2.19
2022-12-05T10:16:35.056Z,2.19
2022-12-05T10:17:34.990Z,2.21
2022-12-05T10:18:34.981Z,2.21
2022-12-05T10:19:34.999Z,2.21
2022-12-05T10:20:34.954Z,2.19
2022-12-05T10:21:34.951Z,2.19
2022-12-05T10:22:34.930Z,2.19
2022-12-05T10:23:56.547Z,2.19
2022-12-05T10:24:35.940Z,2.19
2022-12-05T10:25:34.909Z,2.22
2022-12-05T10:26:34.888Z,2.22
2022-12-05T10:27:39.742Z,2.24
2022-12-05T10:28:35.870Z,2.24
2022-12-05T10:29:34.889Z,2.22
2022-12-05T10:30:34.861Z,2.21
2022-12-05T10:31:34.945Z,2.17
2022-12-05T10:32:34.826Z,2.17
2022-12-05T10:33:34.818Z,2.18
2022-12-05T10:34:34.869Z,2.17
2022-12-05T10:35:34.798Z,2.17
2022-12-05T10:36:34.809Z,2.17
2022-12-05T10:37:34.808Z,2.15
2022-12-05T10:38:34.769Z,2.15
2022-12-05T10:39:34.757Z,2.14
2022-12-05T10:40:34.739Z,2.14
2022-12-05T10:41:34.738Z,2.14
2022-12-05T10:42:34.894Z,2.12
2022-12-05T10:43:34.721Z,2.14
2022-12-05T10:44:34.698Z,2.14
2022-12-05T10:45:34.688Z,2.17
2022-12-05T10:46:34.756Z,2.17
2022-12-05T10:47:34.678Z,2.17
2022-12-05T10:48:34.728Z,2.17
2022-12-05T10:49:34.647Z,2.17
2022-12-05T10:50:34.678Z,2.19
2022-12-05T10:51:37.679Z,2.21
2022-12-05T10:52:34.615Z,2.22
2022-12-05T10:53:34.599Z,2.25
2022-12-05T10:54:34.594Z,2.28
2022-12-05T10:55:34.575Z,2.25
2022-12-05T10:56:34.579Z,2.22
2022-12-05T10:57:34.585Z,2.24
2022-12-05T10:58:34.584Z,2.25
2022-12-05T10:59:34.534Z,2.25
2022-12-05T11:00:34.535Z,2.25
2022-12-05T11:01:34.551Z,2.25
2022-12-05T11:02:34.530Z,2.28
2022-12-05T11:03:34.615Z,2.28
2022-12-05T11:04:34.571Z,2.30
2022-12-05T11:05:34.511Z,2.28
2022-12-05T11:06:34.466Z,2.29
2022-12-05T11:07:34.540Z,2.29
2022-12-05T11:09:03.733Z,2.28
2022-12-05T11:09:35.584Z,2.28
2022-12-05T11:10:34.423Z,2.28
2022-12-05T11:11:34.423Z,2.28
2022-12-05T11:12:34.426Z,2.25
2022-12-05T11:13:34.464Z,2.22
2022-12-05T11:14:34.441Z,2.22
2022-12-05T11:15:34.382Z,2.19
2022-12-05T11:16:34.478Z,2.18
2022-12-05T11:17:34.353Z,2.17
2022-12-05T11:18:34.471Z,2.17
2022-12-05T11:19:34.332Z,2.17
2022-12-05T11:20:34.406Z,2.18
2022-12-05T11:21:34.303Z,2.18
2022-12-05T11:22:34.302Z,2.18
2022-12-05T11:23:34.321Z,2.18
2022-12-05T11:24:34.291Z,2.18
2022-12-05T11:25:34.302Z,2.18
2022-12-05T11:26:34.293Z,2.17
2022-12-05T11:27:34.241Z,2.14
2022-12-05T11:28:34.239Z,2.11
2022-12-05T11:29:34.222Z,2.10
2022-12-05T11:30:34.700Z,2.07
2022-12-05T11:31:34.280Z,2.06
2022-12-05T11:32:34.230Z,2.04
2022-12-05T11:33:34.182Z,2.04
2022-12-05T11:34:34.180Z,2.03
2022-12-05T11:35:34.159Z,2.04
2022-12-05T11:36:34.149Z,2.04
2022-12-05T11:37:34.131Z,2.06
2022-12-05T11:38:34.172Z,2.10
2022-12-05T11:39:34.117Z,2.11
2022-12-05T11:40:38.470Z,2.12
2022-12-05T11:41:34.097Z,2.11
2022-12-05T11:42:34.089Z,2.11
2022-12-05T11:43:34.098Z,2.11
2022-12-05T11:44:34.169Z,2.10
2022-12-05T11:45:34.048Z,2.07
2022-12-05T11:46:34.102Z,2.04
2022-12-05T11:47:34.029Z,2.03
2022-12-05T11:48:34.028Z,2.03
2022-12-05T11:49:34.007Z,2.03
2022-12-05T11:50:35.742Z,2.01
2022-12-05T11:51:33.988Z,1.99
2022-12-05T11:52:39.027Z,1.99
2022-12-05T11:53:34.960Z,1.97
2022-12-05T11:55:04.074Z,1.93
2022-12-05T11:55:34.949Z,1.93
2022-12-05T11:56:33.937Z,1.97
2022-12-05T11:57:33.925Z,1.97
2022-12-05T11:58:33.916Z,1.99
2022-12-05T11:59:33.897Z,2.01
2022-12-05T12:00:33.918Z,2.01
2022-12-05T12:01:33.938Z,2.01
2022-12-05T12:02:34.040Z,1.97
2022-12-05T12:03:34.096Z,2.00
2022-12-05T12:04:33.856Z,1.97
2022-12-05T12:05:33.946Z,1.99
2022-12-05T12:06:33.836Z,1.99
2022-12-05T12:07:33.897Z,1.99
2022-12-05T12:08:33.805Z,2.00
2022-12-05T12:09:33.826Z,2.00
2022-12-05T12:10:33.828Z,2.01
2022-12-05T12:11:33.776Z,2.01
2022-12-05T12:12:33.766Z,2.00
2022-12-05T12:13:33.779Z,1.99
2022-12-05T12:14:33.776Z,1.99
2022-12-05T12:15:33.734Z,1.97
2022-12-05T12:16:36.332Z,1.95
2022-12-05T12:17:33.718Z,1.95
2022-12-05T12:18:33.707Z,1.97
2022-12-05T12:19:33.714Z,1.97
2022-12-05T12:20:33.683Z,1.93
2022-12-05T12:21:38.424Z,1.93
2022-12-05T12:22:34.690Z,1.92
2022-12-05T12:23:33.651Z,1.91
2022-12-05T12:24:33.634Z,1.92
2022-12-05T12:25:33.684Z,1.92
2022-12-05T12:26:33.614Z,1.85
2022-12-05T12:27:33.633Z,1.84
2022-12-05T12:28:33.715Z,1.82
2022-12-05T12:29:37.205Z,1.82
2022-12-05T12:30:33.575Z,1.82
2022-12-05T12:31:33.610Z,1.80
2022-12-05T12:32:33.556Z,1.80
2022-12-05T12:33:33.532Z,1.82
2022-12-05T12:34:33.573Z,1.82
2022-12-05T12:35:33.512Z,1.84
2022-12-05T12:36:33.502Z,1.87
2022-12-05T12:37:33.500Z,1.89
2022-12-05T12:38:33.492Z,1.92
2022-12-05T12:39:33.472Z,1.95
2022-12-05T12:40:36.730Z,1.95
2022-12-05T12:41:33.451Z,1.97
2022-12-05T12:42:33.440Z,1.95
2022-12-05T12:43:53.314Z,1.95
2022-12-05T12:44:34.432Z,1.95
2022-12-05T12:45:33.451Z,1.95
2022-12-05T12:46:33.544Z,1.95
2022-12-05T12:47:33.434Z,1.95
2022-12-05T12:48:33.383Z,1.97
2022-12-05T12:49:33.379Z,1.91
2022-12-05T12:50:34.847Z,1.85
2022-12-05T12:51:33.353Z,1.82
2022-12-05T12:52:33.339Z,1.82
2022-12-05T12:53:33.363Z,1.81
2022-12-05T12:55:02.231Z,1.82
2022-12-05T12:55:34.297Z,1.80
2022-12-05T12:56:33.342Z,1.78
2022-12-05T12:57:33.280Z,1.78
2022-12-05T12:58:33.275Z,1.80
2022-12-05T12:59:34.948Z,1.80
2022-12-05T13:00:33.258Z,1.78
2022-12-05T13:01:33.318Z,1.75
2022-12-05T13:02:33.289Z,1.75
2022-12-05T13:03:33.225Z,1.75
2022-12-05T13:04:33.207Z,1.75
2022-12-05T13:05:33.227Z,1.75
2022-12-05T13:06:33.195Z,1.75
2022-12-05T13:07:33.221Z,1.75
2022-12-05T13:08:33.167Z,1.75
2022-12-05T13:09:33.159Z,1.75
2022-12-05T13:10:33.146Z,1.77
2022-12-05T13:11:33.169Z,1.78
2022-12-05T13:12:33.126Z,1.78
2022-12-05T13:13:35.788Z,1.80
2022-12-05T13:14:33.107Z,1.81
2022-12-05T13:15:33.129Z,1.81
2022-12-05T13:16:33.204Z,1.81
2022-12-05T13:17:34.847Z,1.80
2022-12-05T13:18:33.069Z,1.80
2022-12-05T13:19:33.047Z,1.78